MST,Max TemperatureF,Mean TemperatureF,Min TemperatureF,Max Dew PointF,MeanDew PointF,Min DewpointF,Max Humidity, Mean Humidity, Min Humidity, Max Sea Level PressureIn, Mean Sea Level PressureIn, Min Sea Level PressureIn, Max VisibilityMiles, Mean VisibilityMiles, Min VisibilityMiles, Max Wind SpeedMPH, Mean Wind SpeedMPH, Max Gust SpeedMPH,PrecipitationIn, CloudCover, Events, WindDirDegrees
2014-6-1,102,90,78,43,33,27,28,13,7,29.83,29.78,29.71,10,10,10,14,7,,0.00,2,,258
2014-6-2,105,88,71,39,35,32,29,14,9,29.82,29.75,29.68,10,10,10,8,6,,0.00,6,,10
2014-6-3,105,92,80,37,31,27,16,10,8,29.82,29.76,29.70,10,10,10,10,6,,0.00,5,,253
2014-6-4,105,88,71,36,29,23,19,11,7,29.79,29.74,29.66,10,10,10,13,5,,0.00,2,,250
2014-6-5,104,88,73,36,31,25,18,11,9,29.77,29.70,29.62,10,10,10,9,4,,0.00,0,,261
2014-6-6,105,87,69,34,30,27,27,11,8,29.74,29.68,29.62,10,10,10,12,6,,0.00,0,,260
2014-6-7,104,93,82,37,31,28,17,10,8,29.75,29.69,29.63,10,10,10,17,8,,0.00,0,,247
2014-6-8,102,90,77,37,35,30,23,13,8,29.80,29.74,29.66,10,10,10,12,5,,0.00,0,,267
2014-6-9,105,90,75,50,42,34,41,17,9,29.83,29.73,29.66,10,10,10,12,7,,0.00,1,,247
2014-6-10,107,94,82,52,44,37,35,17,9,29.79,29.72,29.66,10,10,10,17,10,,0.00,2,,236
2014-6-11,102,92,82,46,37,30,26,14,9,29.84,29.78,29.72,10,10,10,17,8,,0.00,4,,240
2014-6-12,105,91,77,54,42,34,22,15,11,29.89,29.81,29.73,10,10,10,12,6,18,0.00,1,,252
2014-6-13,104,92,80,52,47,37,32,19,13,29.85,29.76,29.67,10,10,10,16,9,23,0.00,1,,242
2014-6-14,100,86,73,39,31,25,23,12,8,29.78,29.72,29.66,10,10,10,16,9,17,0.00,0,,244
2014-6-15,98,86,73,39,31,27,19,13,8,29.79,29.75,29.70,10,10,10,14,8,21,0.00,6,,237
2014-6-16,102,88,73,43,34,27,27,15,7,29.84,29.78,29.72,10,10,10,18,9,,0.00,3,,250
2014-6-17,102,91,80,41,38,32,18,14,11,29.85,29.78,29.70,10,10,10,13,10,25,0.00,3,,248
2014-6-18,100,89,78,43,37,32,24,15,10,29.84,29.81,29.77,10,10,10,17,10,21,0.00,1,,249
2014-6-19,98,86,73,39,36,30,27,14,10,29.93,29.87,29.81,10,10,10,12,5,,0.00,0,,250
2014-6-20,105,89,73,45,39,34,29,15,10,29.89,29.82,29.73,10,10,10,14,7,,0.00,2,,242
2014-6-21,105,92,80,46,41,39,30,15,10,29.87,29.80,29.72,10,10,10,14,9,23,0.00,2,,230
2014-6-22,105,89,73,45,34,27,36,13,7,29.87,29.80,29.72,10,10,10,17,8,,0.00,1,,240
2014-6-23,104,90,77,37,33,30,23,12,9,29.89,29.83,29.76,10,10,10,9,6,,0.00,0,,260
2014-6-24,102,90,77,39,34,28,21,13,9,29.93,29.86,29.76,10,10,10,7,4,,0.00,3,,237
2014-6-25,105,92,78,43,37,28,26,14,9,29.97,29.81,29.71,10,10,10,12,7,,0.00,0,,251
2014-6-26,102,88,75,43,39,36,25,15,10,29.85,29.76,29.67,10,10,10,12,7,21,0.00,5,,237
2014-6-27,100,90,80,48,44,39,32,19,12,29.78,29.73,29.65,10,10,10,12,8,21,0.00,0,,247
2014-6-28,105,92,80,54,49,45,37,20,13,29.82,29.76,29.71,10,10,10,12,6,,0.00,0,,256
2014-6-29,105,94,82,55,53,48,37,23,14,29.90,29.83,29.74,10,10,10,14,7,,0.00,0,,258
2014-6-30,105,94,82,59,51,45,45,23,13,29.90,29.80,29.70,10,10,10,12,6,,0.00,1,,257